<gpx creator="Cyclotour.ca" version="1.1" xmlns:gpsies="http://www.gpsies.com/GPX/1/0" xmlns:xsi="http://www.w3.org/2001/XMLSchema-instance" xmlns="http://www.topografix.com/GPX/1/1" xsi:schemaLocation="http://www.topografix.com/GPX/1/1 http://www.topografix.com/GPX/1/1/gpx.xsd http://www.gpsies.com/GPX/1/0 http://www.gpsies.com/gpsies.xsd">
<trk>
<name>Jour 5 - Parcours 71 km - Grand tour du Mont Mégantic (2018)</name>
<trkseg>
<trkpt lat="45.461430000" lon="-71.071970000">
<ele>0</ele>
<time>2026-09-04T06:23:39Z</time>
</trkpt>
<trkpt lat="45.461560000" lon="-71.072080000">
<ele>0</ele>
<time>2026-09-04T06:23:40Z</time>
</trkpt>
<trkpt lat="45.461940000" lon="-71.072290000">
<ele>0</ele>
<time>2026-09-04T06:23:41Z</time>
</trkpt>
<trkpt lat="45.462770000" lon="-71.072320000">
<ele>0</ele>
<time>2026-09-04T06:23:42Z</time>
</trkpt>
<trkpt lat="45.462950000" lon="-71.073840000">
<ele>0</ele>
<time>2026-09-04T06:23:43Z</time>
</trkpt>
<trkpt lat="45.463100000" lon="-71.073770000">
<ele>0</ele>
<time>2026-09-04T06:23:44Z</time>
</trkpt>
<trkpt lat="45.468400000" lon="-71.073910000">
<ele>0</ele>
<time>2026-09-04T06:23:45Z</time>
</trkpt>
<trkpt lat="45.474880000" lon="-71.074070000">
<ele>0</ele>
<time>2026-09-04T06:23:46Z</time>
</trkpt>
<trkpt lat="45.474880000" lon="-71.074070000">
<ele>0</ele>
<time>2026-09-04T06:23:47Z</time>
</trkpt>
<trkpt lat="45.477450000" lon="-71.074140000">
<ele>0</ele>
<time>2026-09-04T06:23:48Z</time>
</trkpt>
<trkpt lat="45.480070000" lon="-71.074300000">
<ele>0</ele>
<time>2026-09-04T06:23:49Z</time>
</trkpt>
<trkpt lat="45.482450000" lon="-71.074330000">
<ele>0</ele>
<time>2026-09-04T06:23:50Z</time>
</trkpt>
<trkpt lat="45.484560000" lon="-71.074420000">
<ele>0</ele>
<time>2026-09-04T06:23:51Z</time>
</trkpt>
<trkpt lat="45.486530000" lon="-71.074450000">
<ele>0</ele>
<time>2026-09-04T06:23:52Z</time>
</trkpt>
<trkpt lat="45.494490000" lon="-71.074500000">
<ele>0</ele>
<time>2026-09-04T06:23:53Z</time>
</trkpt>
<trkpt lat="45.500010000" lon="-71.074490000">
<ele>0</ele>
<time>2026-09-04T06:23:54Z</time>
</trkpt>
<trkpt lat="45.504100000" lon="-71.074460000">
<ele>0</ele>
<time>2026-09-04T06:23:55Z</time>
</trkpt>
<trkpt lat="45.511800000" lon="-71.074380000">
<ele>0</ele>
<time>2026-09-04T06:23:56Z</time>
</trkpt>
<trkpt lat="45.513470000" lon="-71.074380000">
<ele>0</ele>
<time>2026-09-04T06:23:57Z</time>
</trkpt>
<trkpt lat="45.515180000" lon="-71.074380000">
<ele>0</ele>
<time>2026-09-04T06:23:58Z</time>
</trkpt>
<trkpt lat="45.520560000" lon="-71.074310000">
<ele>0</ele>
<time>2026-09-04T06:23:59Z</time>
</trkpt>
<trkpt lat="45.522930000" lon="-71.074320000">
<ele>0</ele>
<time>2026-09-04T06:24:00Z</time>
</trkpt>
<trkpt lat="45.527800000" lon="-71.074250000">
<ele>0</ele>
<time>2026-09-04T06:24:01Z</time>
</trkpt>
<trkpt lat="45.530350000" lon="-71.074170000">
<ele>0</ele>
<time>2026-09-04T06:24:02Z</time>
</trkpt>
<trkpt lat="45.534070000" lon="-71.074120000">
<ele>0</ele>
<time>2026-09-04T06:24:03Z</time>
</trkpt>
<trkpt lat="45.534070000" lon="-71.074120000">
<ele>0</ele>
<time>2026-09-04T06:24:04Z</time>
</trkpt>
<trkpt lat="45.537880000" lon="-71.074010000">
<ele>0</ele>
<time>2026-09-04T06:24:05Z</time>
</trkpt>
<trkpt lat="45.541740000" lon="-71.073980000">
<ele>0</ele>
<time>2026-09-04T06:24:06Z</time>
</trkpt>
<trkpt lat="45.545680000" lon="-71.073870000">
<ele>0</ele>
<time>2026-09-04T06:24:07Z</time>
</trkpt>
<trkpt lat="45.548790000" lon="-71.073880000">
<ele>0</ele>
<time>2026-09-04T06:24:08Z</time>
</trkpt>
<trkpt lat="45.549400000" lon="-71.073860000">
<ele>0</ele>
<time>2026-09-04T06:24:09Z</time>
</trkpt>
<trkpt lat="45.550100000" lon="-71.074020000">
<ele>0</ele>
<time>2026-09-04T06:24:10Z</time>
</trkpt>
<trkpt lat="45.550620000" lon="-71.074340000">
<ele>0</ele>
<time>2026-09-04T06:24:11Z</time>
</trkpt>
<trkpt lat="45.551130000" lon="-71.074410000">
<ele>0</ele>
<time>2026-09-04T06:24:12Z</time>
</trkpt>
<trkpt lat="45.551900000" lon="-71.074410000">
<ele>0</ele>
<time>2026-09-04T06:24:13Z</time>
</trkpt>
<trkpt lat="45.555910000" lon="-71.074230000">
<ele>0</ele>
<time>2026-09-04T06:24:14Z</time>
</trkpt>
<trkpt lat="45.558690000" lon="-71.074280000">
<ele>0</ele>
<time>2026-09-04T06:24:15Z</time>
</trkpt>
<trkpt lat="45.561090000" lon="-71.074160000">
<ele>0</ele>
<time>2026-09-04T06:24:16Z</time>
</trkpt>
<trkpt lat="45.561650000" lon="-71.074080000">
<ele>0</ele>
<time>2026-09-04T06:24:17Z</time>
</trkpt>
<trkpt lat="45.562020000" lon="-71.073970000">
<ele>0</ele>
<time>2026-09-04T06:24:18Z</time>
</trkpt>
<trkpt lat="45.562470000" lon="-71.073730000">
<ele>0</ele>
<time>2026-09-04T06:24:19Z</time>
</trkpt>
<trkpt lat="45.563050000" lon="-71.073250000">
<ele>0</ele>
<time>2026-09-04T06:24:20Z</time>
</trkpt>
<trkpt lat="45.563740000" lon="-71.072590000">
<ele>0</ele>
<time>2026-09-04T06:24:21Z</time>
</trkpt>
<trkpt lat="45.564300000" lon="-71.072110000">
<ele>0</ele>
<time>2026-09-04T06:24:22Z</time>
</trkpt>
<trkpt lat="45.564640000" lon="-71.071930000">
<ele>0</ele>
<time>2026-09-04T06:24:23Z</time>
</trkpt>
<trkpt lat="45.564930000" lon="-71.071830000">
<ele>0</ele>
<time>2026-09-04T06:24:24Z</time>
</trkpt>
<trkpt lat="45.566010000" lon="-71.071780000">
<ele>0</ele>
<time>2026-09-04T06:24:25Z</time>
</trkpt>
<trkpt lat="45.566390000" lon="-71.071820000">
<ele>0</ele>
<time>2026-09-04T06:24:26Z</time>
</trkpt>
<trkpt lat="45.566670000" lon="-71.072010000">
<ele>0</ele>
<time>2026-09-04T06:24:27Z</time>
</trkpt>
<trkpt lat="45.567230000" lon="-71.072650000">
<ele>0</ele>
<time>2026-09-04T06:24:28Z</time>
</trkpt>
<trkpt lat="45.567750000" lon="-71.073160000">
<ele>0</ele>
<time>2026-09-04T06:24:29Z</time>
</trkpt>
<trkpt lat="45.568380000" lon="-71.073620000">
<ele>0</ele>
<time>2026-09-04T06:24:30Z</time>
</trkpt>
<trkpt lat="45.568890000" lon="-71.073860000">
<ele>0</ele>
<time>2026-09-04T06:24:31Z</time>
</trkpt>
<trkpt lat="45.569400000" lon="-71.073900000">
<ele>0</ele>
<time>2026-09-04T06:24:32Z</time>
</trkpt>
<trkpt lat="45.571320000" lon="-71.073860000">
<ele>0</ele>
<time>2026-09-04T06:24:33Z</time>
</trkpt>
<trkpt lat="45.573070000" lon="-71.073780000">
<ele>0</ele>
<time>2026-09-04T06:24:34Z</time>
</trkpt>
<trkpt lat="45.573690000" lon="-71.073630000">
<ele>0</ele>
<time>2026-09-04T06:24:35Z</time>
</trkpt>
<trkpt lat="45.573880000" lon="-71.073690000">
<ele>0</ele>
<time>2026-09-04T06:24:36Z</time>
</trkpt>
<trkpt lat="45.573920000" lon="-71.073660000">
<ele>0</ele>
<time>2026-09-04T06:24:37Z</time>
</trkpt>
<trkpt lat="45.573960000" lon="-71.073690000">
<ele>0</ele>
<time>2026-09-04T06:24:38Z</time>
</trkpt>
<trkpt lat="45.574270000" lon="-71.075100000">
<ele>0</ele>
<time>2026-09-04T06:24:39Z</time>
</trkpt>
<trkpt lat="45.574390000" lon="-71.076590000">
<ele>0</ele>
<time>2026-09-04T06:24:40Z</time>
</trkpt>
<trkpt lat="45.574980000" lon="-71.078100000">
<ele>0</ele>
<time>2026-09-04T06:24:41Z</time>
</trkpt>
<trkpt lat="45.575340000" lon="-71.078850000">
<ele>0</ele>
<time>2026-09-04T06:24:42Z</time>
</trkpt>
<trkpt lat="45.575480000" lon="-71.079540000">
<ele>0</ele>
<time>2026-09-04T06:24:43Z</time>
</trkpt>
<trkpt lat="45.575480000" lon="-71.080680000">
<ele>0</ele>
<time>2026-09-04T06:24:44Z</time>
</trkpt>
<trkpt lat="45.575150000" lon="-71.082240000">
<ele>0</ele>
<time>2026-09-04T06:24:45Z</time>
</trkpt>
<trkpt lat="45.575130000" lon="-71.082560000">
<ele>0</ele>
<time>2026-09-04T06:24:46Z</time>
</trkpt>
<trkpt lat="45.575270000" lon="-71.083930000">
<ele>0</ele>
<time>2026-09-04T06:24:47Z</time>
</trkpt>
<trkpt lat="45.575310000" lon="-71.084120000">
<ele>0</ele>
<time>2026-09-04T06:24:48Z</time>
</trkpt>
<trkpt lat="45.575710000" lon="-71.085140000">
<ele>0</ele>
<time>2026-09-04T06:24:49Z</time>
</trkpt>
<trkpt lat="45.576030000" lon="-71.086140000">
<ele>0</ele>
<time>2026-09-04T06:24:50Z</time>
</trkpt>
<trkpt lat="45.576530000" lon="-71.088240000">
<ele>0</ele>
<time>2026-09-04T06:24:51Z</time>
</trkpt>
<trkpt lat="45.576660000" lon="-71.089040000">
<ele>0</ele>
<time>2026-09-04T06:24:52Z</time>
</trkpt>
<trkpt lat="45.576800000" lon="-71.089570000">
<ele>0</ele>
<time>2026-09-04T06:24:53Z</time>
</trkpt>
<trkpt lat="45.577290000" lon="-71.090960000">
<ele>0</ele>
<time>2026-09-04T06:24:54Z</time>
</trkpt>
<trkpt lat="45.577310000" lon="-71.091520000">
<ele>0</ele>
<time>2026-09-04T06:24:55Z</time>
</trkpt>
<trkpt lat="45.577410000" lon="-71.092420000">
<ele>0</ele>
<time>2026-09-04T06:24:56Z</time>
</trkpt>
<trkpt lat="45.577500000" lon="-71.092860000">
<ele>0</ele>
<time>2026-09-04T06:24:57Z</time>
</trkpt>
<trkpt lat="45.577840000" lon="-71.094030000">
<ele>0</ele>
<time>2026-09-04T06:24:58Z</time>
</trkpt>
<trkpt lat="45.578120000" lon="-71.095140000">
<ele>0</ele>
<time>2026-09-04T06:24:59Z</time>
</trkpt>
<trkpt lat="45.578190000" lon="-71.096060000">
<ele>0</ele>
<time>2026-09-04T06:25:00Z</time>
</trkpt>
<trkpt lat="45.578460000" lon="-71.096740000">
<ele>0</ele>
<time>2026-09-04T06:25:01Z</time>
</trkpt>
<trkpt lat="45.579520000" lon="-71.098660000">
<ele>0</ele>
<time>2026-09-04T06:25:02Z</time>
</trkpt>
<trkpt lat="45.580380000" lon="-71.099900000">
<ele>0</ele>
<time>2026-09-04T06:25:03Z</time>
</trkpt>
<trkpt lat="45.581150000" lon="-71.100570000">
<ele>0</ele>
<time>2026-09-04T06:25:04Z</time>
</trkpt>
<trkpt lat="45.581400000" lon="-71.100950000">
<ele>0</ele>
<time>2026-09-04T06:25:05Z</time>
</trkpt>
<trkpt lat="45.581910000" lon="-71.101980000">
<ele>0</ele>
<time>2026-09-04T06:25:06Z</time>
</trkpt>
<trkpt lat="45.582110000" lon="-71.102240000">
<ele>0</ele>
<time>2026-09-04T06:25:07Z</time>
</trkpt>
<trkpt lat="45.583280000" lon="-71.103180000">
<ele>0</ele>
<time>2026-09-04T06:25:08Z</time>
</trkpt>
<trkpt lat="45.583670000" lon="-71.103650000">
<ele>0</ele>
<time>2026-09-04T06:25:09Z</time>
</trkpt>
<trkpt lat="45.583790000" lon="-71.103990000">
<ele>0</ele>
<time>2026-09-04T06:25:10Z</time>
</trkpt>
<trkpt lat="45.584010000" lon="-71.105060000">
<ele>0</ele>
<time>2026-09-04T06:25:11Z</time>
</trkpt>
<trkpt lat="45.584290000" lon="-71.105670000">
<ele>0</ele>
<time>2026-09-04T06:25:12Z</time>
</trkpt>
<trkpt lat="45.584450000" lon="-71.105930000">
<ele>0</ele>
<time>2026-09-04T06:25:13Z</time>
</trkpt>
<trkpt lat="45.584450000" lon="-71.105930000">
<ele>0</ele>
<time>2026-09-04T06:25:14Z</time>
</trkpt>
<trkpt lat="45.584680000" lon="-71.106330000">
<ele>0</ele>
<time>2026-09-04T06:25:15Z</time>
</trkpt>
<trkpt lat="45.585000000" lon="-71.106560000">
<ele>0</ele>
<time>2026-09-04T06:25:16Z</time>
</trkpt>
<trkpt lat="45.585920000" lon="-71.107460000">
<ele>0</ele>
<time>2026-09-04T06:25:17Z</time>
</trkpt>
<trkpt lat="45.586390000" lon="-71.108010000">
<ele>0</ele>
<time>2026-09-04T06:25:18Z</time>
</trkpt>
<trkpt lat="45.587110000" lon="-71.109010000">
<ele>0</ele>
<time>2026-09-04T06:25:19Z</time>
</trkpt>
<trkpt lat="45.587680000" lon="-71.110410000">
<ele>0</ele>
<time>2026-09-04T06:25:20Z</time>
</trkpt>
<trkpt lat="45.588180000" lon="-71.112480000">
<ele>0</ele>
<time>2026-09-04T06:25:21Z</time>
</trkpt>
<trkpt lat="45.588310000" lon="-71.112870000">
<ele>0</ele>
<time>2026-09-04T06:25:22Z</time>
</trkpt>
<trkpt lat="45.588450000" lon="-71.113480000">
<ele>0</ele>
<time>2026-09-04T06:25:23Z</time>
</trkpt>
<trkpt lat="45.588500000" lon="-71.113980000">
<ele>0</ele>
<time>2026-09-04T06:25:24Z</time>
</trkpt>
<trkpt lat="45.588520000" lon="-71.114700000">
<ele>0</ele>
<time>2026-09-04T06:25:25Z</time>
</trkpt>
<trkpt lat="45.588620000" lon="-71.115130000">
<ele>0</ele>
<time>2026-09-04T06:25:26Z</time>
</trkpt>
<trkpt lat="45.588860000" lon="-71.115880000">
<ele>0</ele>
<time>2026-09-04T06:25:27Z</time>
</trkpt>
<trkpt lat="45.589110000" lon="-71.117150000">
<ele>0</ele>
<time>2026-09-04T06:25:28Z</time>
</trkpt>
<trkpt lat="45.589290000" lon="-71.118340000">
<ele>0</ele>
<time>2026-09-04T06:25:29Z</time>
</trkpt>
<trkpt lat="45.589300000" lon="-71.121080000">
<ele>0</ele>
<time>2026-09-04T06:25:30Z</time>
</trkpt>
<trkpt lat="45.589350000" lon="-71.122830000">
<ele>0</ele>
<time>2026-09-04T06:25:31Z</time>
</trkpt>
<trkpt lat="45.589390000" lon="-71.122860000">
<ele>0</ele>
<time>2026-09-04T06:25:32Z</time>
</trkpt>
<trkpt lat="45.589440000" lon="-71.122890000">
<ele>0</ele>
<time>2026-09-04T06:25:33Z</time>
</trkpt>
<trkpt lat="45.589700000" lon="-71.122900000">
<ele>0</ele>
<time>2026-09-04T06:25:34Z</time>
</trkpt>
<trkpt lat="45.589780000" lon="-71.122940000">
<ele>0</ele>
<time>2026-09-04T06:25:35Z</time>
</trkpt>
<trkpt lat="45.590240000" lon="-71.123670000">
<ele>0</ele>
<time>2026-09-04T06:25:36Z</time>
</trkpt>
<trkpt lat="45.591440000" lon="-71.125440000">
<ele>0</ele>
<time>2026-09-04T06:25:37Z</time>
</trkpt>
<trkpt lat="45.591910000" lon="-71.126240000">
<ele>0</ele>
<time>2026-09-04T06:25:38Z</time>
</trkpt>
<trkpt lat="45.594340000" lon="-71.130450000">
<ele>0</ele>
<time>2026-09-04T06:25:39Z</time>
</trkpt>
<trkpt lat="45.597910000" lon="-71.136540000">
<ele>0</ele>
<time>2026-09-04T06:25:40Z</time>
</trkpt>
<trkpt lat="45.600180000" lon="-71.140530000">
<ele>0</ele>
<time>2026-09-04T06:25:41Z</time>
</trkpt>
<trkpt lat="45.600570000" lon="-71.141540000">
<ele>0</ele>
<time>2026-09-04T06:25:42Z</time>
</trkpt>
<trkpt lat="45.600780000" lon="-71.142730000">
<ele>0</ele>
<time>2026-09-04T06:25:43Z</time>
</trkpt>
<trkpt lat="45.601170000" lon="-71.142730000">
<ele>0</ele>
<time>2026-09-04T06:25:44Z</time>
</trkpt>
<trkpt lat="45.601260000" lon="-71.142730000">
<ele>0</ele>
<time>2026-09-04T06:25:45Z</time>
</trkpt>
<trkpt lat="45.601460000" lon="-71.142820000">
<ele>0</ele>
<time>2026-09-04T06:25:46Z</time>
</trkpt>
<trkpt lat="45.601730000" lon="-71.143160000">
<ele>0</ele>
<time>2026-09-04T06:25:47Z</time>
</trkpt>
<trkpt lat="45.604820000" lon="-71.148410000">
<ele>0</ele>
<time>2026-09-04T06:25:48Z</time>
</trkpt>
<trkpt lat="45.607180000" lon="-71.152460000">
<ele>0</ele>
<time>2026-09-04T06:25:49Z</time>
</trkpt>
<trkpt lat="45.607180000" lon="-71.152460000">
<ele>0</ele>
<time>2026-09-04T06:25:50Z</time>
</trkpt>
<trkpt lat="45.610690000" lon="-71.158510000">
<ele>0</ele>
<time>2026-09-04T06:25:51Z</time>
</trkpt>
<trkpt lat="45.610680000" lon="-71.158630000">
<ele>0</ele>
<time>2026-09-04T06:25:52Z</time>
</trkpt>
<trkpt lat="45.610660000" lon="-71.158720000">
<ele>0</ele>
<time>2026-09-04T06:25:53Z</time>
</trkpt>
<trkpt lat="45.610560000" lon="-71.158920000">
<ele>0</ele>
<time>2026-09-04T06:25:54Z</time>
</trkpt>
<trkpt lat="45.609120000" lon="-71.160940000">
<ele>0</ele>
<time>2026-09-04T06:25:55Z</time>
</trkpt>
<trkpt lat="45.605430000" lon="-71.166250000">
<ele>0</ele>
<time>2026-09-04T06:25:56Z</time>
</trkpt>
<trkpt lat="45.603760000" lon="-71.168520000">
<ele>0</ele>
<time>2026-09-04T06:25:57Z</time>
</trkpt>
<trkpt lat="45.603170000" lon="-71.169360000">
<ele>0</ele>
<time>2026-09-04T06:25:58Z</time>
</trkpt>
<trkpt lat="45.601910000" lon="-71.170960000">
<ele>0</ele>
<time>2026-09-04T06:25:59Z</time>
</trkpt>
<trkpt lat="45.600560000" lon="-71.172880000">
<ele>0</ele>
<time>2026-09-04T06:26:00Z</time>
</trkpt>
<trkpt lat="45.594620000" lon="-71.181300000">
<ele>0</ele>
<time>2026-09-04T06:26:01Z</time>
</trkpt>
<trkpt lat="45.591940000" lon="-71.185150000">
<ele>0</ele>
<time>2026-09-04T06:26:02Z</time>
</trkpt>
<trkpt lat="45.590900000" lon="-71.186630000">
<ele>0</ele>
<time>2026-09-04T06:26:03Z</time>
</trkpt>
<trkpt lat="45.580350000" lon="-71.201190000">
<ele>0</ele>
<time>2026-09-04T06:26:04Z</time>
</trkpt>
<trkpt lat="45.579980000" lon="-71.201790000">
<ele>0</ele>
<time>2026-09-04T06:26:05Z</time>
</trkpt>
<trkpt lat="45.576620000" lon="-71.206370000">
<ele>0</ele>
<time>2026-09-04T06:26:06Z</time>
</trkpt>
<trkpt lat="45.574700000" lon="-71.209240000">
<ele>0</ele>
<time>2026-09-04T06:26:07Z</time>
</trkpt>
<trkpt lat="45.573160000" lon="-71.211440000">
<ele>0</ele>
<time>2026-09-04T06:26:08Z</time>
</trkpt>
<trkpt lat="45.573160000" lon="-71.211440000">
<ele>0</ele>
<time>2026-09-04T06:26:09Z</time>
</trkpt>
<trkpt lat="45.571490000" lon="-71.213820000">
<ele>0</ele>
<time>2026-09-04T06:26:10Z</time>
</trkpt>
<trkpt lat="45.569640000" lon="-71.216550000">
<ele>0</ele>
<time>2026-09-04T06:26:11Z</time>
</trkpt>
<trkpt lat="45.568270000" lon="-71.218300000">
<ele>0</ele>
<time>2026-09-04T06:26:12Z</time>
</trkpt>
<trkpt lat="45.567140000" lon="-71.220080000">
<ele>0</ele>
<time>2026-09-04T06:26:13Z</time>
</trkpt>
<trkpt lat="45.566170000" lon="-71.221790000">
<ele>0</ele>
<time>2026-09-04T06:26:14Z</time>
</trkpt>
<trkpt lat="45.565730000" lon="-71.222460000">
<ele>0</ele>
<time>2026-09-04T06:26:15Z</time>
</trkpt>
<trkpt lat="45.564970000" lon="-71.223310000">
<ele>0</ele>
<time>2026-09-04T06:26:16Z</time>
</trkpt>
<trkpt lat="45.564220000" lon="-71.224770000">
<ele>0</ele>
<time>2026-09-04T06:26:17Z</time>
</trkpt>
<trkpt lat="45.562900000" lon="-71.226850000">
<ele>0</ele>
<time>2026-09-04T06:26:18Z</time>
</trkpt>
<trkpt lat="45.562500000" lon="-71.227520000">
<ele>0</ele>
<time>2026-09-04T06:26:19Z</time>
</trkpt>
<trkpt lat="45.561830000" lon="-71.228750000">
<ele>0</ele>
<time>2026-09-04T06:26:20Z</time>
</trkpt>
<trkpt lat="45.560630000" lon="-71.230650000">
<ele>0</ele>
<time>2026-09-04T06:26:21Z</time>
</trkpt>
<trkpt lat="45.560130000" lon="-71.231320000">
<ele>0</ele>
<time>2026-09-04T06:26:22Z</time>
</trkpt>
<trkpt lat="45.559430000" lon="-71.232560000">
<ele>0</ele>
<time>2026-09-04T06:26:23Z</time>
</trkpt>
<trkpt lat="45.559080000" lon="-71.233010000">
<ele>0</ele>
<time>2026-09-04T06:26:24Z</time>
</trkpt>
<trkpt lat="45.558860000" lon="-71.233150000">
<ele>0</ele>
<time>2026-09-04T06:26:25Z</time>
</trkpt>
<trkpt lat="45.558560000" lon="-71.233310000">
<ele>0</ele>
<time>2026-09-04T06:26:26Z</time>
</trkpt>
<trkpt lat="45.557790000" lon="-71.233600000">
<ele>0</ele>
<time>2026-09-04T06:26:27Z</time>
</trkpt>
<trkpt lat="45.557450000" lon="-71.233880000">
<ele>0</ele>
<time>2026-09-04T06:26:28Z</time>
</trkpt>
<trkpt lat="45.556920000" lon="-71.234720000">
<ele>0</ele>
<time>2026-09-04T06:26:29Z</time>
</trkpt>
<trkpt lat="45.555860000" lon="-71.236230000">
<ele>0</ele>
<time>2026-09-04T06:26:30Z</time>
</trkpt>
<trkpt lat="45.555750000" lon="-71.236350000">
<ele>0</ele>
<time>2026-09-04T06:26:31Z</time>
</trkpt>
<trkpt lat="45.555390000" lon="-71.236780000">
<ele>0</ele>
<time>2026-09-04T06:26:32Z</time>
</trkpt>
<trkpt lat="45.554780000" lon="-71.237110000">
<ele>0</ele>
<time>2026-09-04T06:26:33Z</time>
</trkpt>
<trkpt lat="45.554610000" lon="-71.237240000">
<ele>0</ele>
<time>2026-09-04T06:26:34Z</time>
</trkpt>
<trkpt lat="45.554430000" lon="-71.237610000">
<ele>0</ele>
<time>2026-09-04T06:26:35Z</time>
</trkpt>
<trkpt lat="45.554050000" lon="-71.238600000">
<ele>0</ele>
<time>2026-09-04T06:26:36Z</time>
</trkpt>
<trkpt lat="45.553750000" lon="-71.239110000">
<ele>0</ele>
<time>2026-09-04T06:26:37Z</time>
</trkpt>
<trkpt lat="45.552440000" lon="-71.240850000">
<ele>0</ele>
<time>2026-09-04T06:26:38Z</time>
</trkpt>
<trkpt lat="45.552140000" lon="-71.241330000">
<ele>0</ele>
<time>2026-09-04T06:26:39Z</time>
</trkpt>
<trkpt lat="45.551940000" lon="-71.241780000">
<ele>0</ele>
<time>2026-09-04T06:26:40Z</time>
</trkpt>
<trkpt lat="45.550520000" lon="-71.243700000">
<ele>0</ele>
<time>2026-09-04T06:26:41Z</time>
</trkpt>
<trkpt lat="45.549500000" lon="-71.244930000">
<ele>0</ele>
<time>2026-09-04T06:26:42Z</time>
</trkpt>
<trkpt lat="45.549080000" lon="-71.245730000">
<ele>0</ele>
<time>2026-09-04T06:26:43Z</time>
</trkpt>
<trkpt lat="45.548810000" lon="-71.246100000">
<ele>0</ele>
<time>2026-09-04T06:26:44Z</time>
</trkpt>
<trkpt lat="45.547520000" lon="-71.247640000">
<ele>0</ele>
<time>2026-09-04T06:26:45Z</time>
</trkpt>
<trkpt lat="45.546230000" lon="-71.249450000">
<ele>0</ele>
<time>2026-09-04T06:26:46Z</time>
</trkpt>
<trkpt lat="45.544720000" lon="-71.251820000">
<ele>0</ele>
<time>2026-09-04T06:26:47Z</time>
</trkpt>
<trkpt lat="45.544260000" lon="-71.252750000">
<ele>0</ele>
<time>2026-09-04T06:26:48Z</time>
</trkpt>
<trkpt lat="45.544050000" lon="-71.253060000">
<ele>0</ele>
<time>2026-09-04T06:26:49Z</time>
</trkpt>
<trkpt lat="45.543820000" lon="-71.253360000">
<ele>0</ele>
<time>2026-09-04T06:26:50Z</time>
</trkpt>
<trkpt lat="45.543210000" lon="-71.253930000">
<ele>0</ele>
<time>2026-09-04T06:26:51Z</time>
</trkpt>
<trkpt lat="45.542100000" lon="-71.255180000">
<ele>0</ele>
<time>2026-09-04T06:26:52Z</time>
</trkpt>
<trkpt lat="45.541790000" lon="-71.255680000">
<ele>0</ele>
<time>2026-09-04T06:26:53Z</time>
</trkpt>
<trkpt lat="45.541440000" lon="-71.256310000">
<ele>0</ele>
<time>2026-09-04T06:26:54Z</time>
</trkpt>
<trkpt lat="45.540990000" lon="-71.257020000">
<ele>0</ele>
<time>2026-09-04T06:26:55Z</time>
</trkpt>
<trkpt lat="45.540230000" lon="-71.258010000">
<ele>0</ele>
<time>2026-09-04T06:26:56Z</time>
</trkpt>
<trkpt lat="45.540230000" lon="-71.258010000">
<ele>0</ele>
<time>2026-09-04T06:26:57Z</time>
</trkpt>
<trkpt lat="45.539820000" lon="-71.258620000">
<ele>0</ele>
<time>2026-09-04T06:26:58Z</time>
</trkpt>
<trkpt lat="45.539360000" lon="-71.259230000">
<ele>0</ele>
<time>2026-09-04T06:26:59Z</time>
</trkpt>
<trkpt lat="45.537870000" lon="-71.260860000">
<ele>0</ele>
<time>2026-09-04T06:27:00Z</time>
</trkpt>
<trkpt lat="45.537750000" lon="-71.260950000">
<ele>0</ele>
<time>2026-09-04T06:27:01Z</time>
</trkpt>
<trkpt lat="45.537570000" lon="-71.261020000">
<ele>0</ele>
<time>2026-09-04T06:27:02Z</time>
</trkpt>
<trkpt lat="45.532950000" lon="-71.260900000">
<ele>0</ele>
<time>2026-09-04T06:27:03Z</time>
</trkpt>
<trkpt lat="45.532490000" lon="-71.260970000">
<ele>0</ele>
<time>2026-09-04T06:27:04Z</time>
</trkpt>
<trkpt lat="45.532050000" lon="-71.261210000">
<ele>0</ele>
<time>2026-09-04T06:27:05Z</time>
</trkpt>
<trkpt lat="45.531670000" lon="-71.261540000">
<ele>0</ele>
<time>2026-09-04T06:27:06Z</time>
</trkpt>
<trkpt lat="45.529350000" lon="-71.263790000">
<ele>0</ele>
<time>2026-09-04T06:27:07Z</time>
</trkpt>
<trkpt lat="45.529390000" lon="-71.264670000">
<ele>0</ele>
<time>2026-09-04T06:27:08Z</time>
</trkpt>
<trkpt lat="45.529130000" lon="-71.270780000">
<ele>0</ele>
<time>2026-09-04T06:27:09Z</time>
</trkpt>
<trkpt lat="45.529000000" lon="-71.272480000">
<ele>0</ele>
<time>2026-09-04T06:27:10Z</time>
</trkpt>
<trkpt lat="45.528930000" lon="-71.273020000">
<ele>0</ele>
<time>2026-09-04T06:27:11Z</time>
</trkpt>
<trkpt lat="45.528830000" lon="-71.273310000">
<ele>0</ele>
<time>2026-09-04T06:27:12Z</time>
</trkpt>
<trkpt lat="45.528580000" lon="-71.273780000">
<ele>0</ele>
<time>2026-09-04T06:27:13Z</time>
</trkpt>
<trkpt lat="45.528270000" lon="-71.274270000">
<ele>0</ele>
<time>2026-09-04T06:27:14Z</time>
</trkpt>
<trkpt lat="45.528110000" lon="-71.274460000">
<ele>0</ele>
<time>2026-09-04T06:27:15Z</time>
</trkpt>
<trkpt lat="45.527170000" lon="-71.275310000">
<ele>0</ele>
<time>2026-09-04T06:27:16Z</time>
</trkpt>
<trkpt lat="45.527090000" lon="-71.275280000">
<ele>0</ele>
<time>2026-09-04T06:27:17Z</time>
</trkpt>
<trkpt lat="45.526510000" lon="-71.275490000">
<ele>0</ele>
<time>2026-09-04T06:27:18Z</time>
</trkpt>
<trkpt lat="45.525960000" lon="-71.275500000">
<ele>0</ele>
<time>2026-09-04T06:27:19Z</time>
</trkpt>
<trkpt lat="45.525640000" lon="-71.275580000">
<ele>0</ele>
<time>2026-09-04T06:27:20Z</time>
</trkpt>
<trkpt lat="45.525510000" lon="-71.275600000">
<ele>0</ele>
<time>2026-09-04T06:27:21Z</time>
</trkpt>
<trkpt lat="45.525440000" lon="-71.275660000">
<ele>0</ele>
<time>2026-09-04T06:27:22Z</time>
</trkpt>
<trkpt lat="45.525410000" lon="-71.275770000">
<ele>0</ele>
<time>2026-09-04T06:27:23Z</time>
</trkpt>
<trkpt lat="45.525370000" lon="-71.276220000">
<ele>0</ele>
<time>2026-09-04T06:27:24Z</time>
</trkpt>
<trkpt lat="45.525300000" lon="-71.276700000">
<ele>0</ele>
<time>2026-09-04T06:27:25Z</time>
</trkpt>
<trkpt lat="45.525190000" lon="-71.277200000">
<ele>0</ele>
<time>2026-09-04T06:27:26Z</time>
</trkpt>
<trkpt lat="45.524960000" lon="-71.277940000">
<ele>0</ele>
<time>2026-09-04T06:27:27Z</time>
</trkpt>
<trkpt lat="45.523970000" lon="-71.277290000">
<ele>0</ele>
<time>2026-09-04T06:27:28Z</time>
</trkpt>
<trkpt lat="45.523020000" lon="-71.276620000">
<ele>0</ele>
<time>2026-09-04T06:27:29Z</time>
</trkpt>
<trkpt lat="45.522060000" lon="-71.276010000">
<ele>0</ele>
<time>2026-09-04T06:27:30Z</time>
</trkpt>
<trkpt lat="45.520960000" lon="-71.275140000">
<ele>0</ele>
<time>2026-09-04T06:27:31Z</time>
</trkpt>
<trkpt lat="45.517920000" lon="-71.272990000">
<ele>0</ele>
<time>2026-09-04T06:27:32Z</time>
</trkpt>
<trkpt lat="45.517240000" lon="-71.272490000">
<ele>0</ele>
<time>2026-09-04T06:27:33Z</time>
</trkpt>
<trkpt lat="45.517240000" lon="-71.272490000">
<ele>0</ele>
<time>2026-09-04T06:27:34Z</time>
</trkpt>
<trkpt lat="45.514550000" lon="-71.270540000">
<ele>0</ele>
<time>2026-09-04T06:27:35Z</time>
</trkpt>
<trkpt lat="45.512240000" lon="-71.268930000">
<ele>0</ele>
<time>2026-09-04T06:27:36Z</time>
</trkpt>
<trkpt lat="45.511730000" lon="-71.268600000">
<ele>0</ele>
<time>2026-09-04T06:27:37Z</time>
</trkpt>
<trkpt lat="45.511540000" lon="-71.268510000">
<ele>0</ele>
<time>2026-09-04T06:27:38Z</time>
</trkpt>
<trkpt lat="45.511350000" lon="-71.268450000">
<ele>0</ele>
<time>2026-09-04T06:27:39Z</time>
</trkpt>
<trkpt lat="45.511120000" lon="-71.268410000">
<ele>0</ele>
<time>2026-09-04T06:27:40Z</time>
</trkpt>
<trkpt lat="45.510910000" lon="-71.268410000">
<ele>0</ele>
<time>2026-09-04T06:27:41Z</time>
</trkpt>
<trkpt lat="45.510530000" lon="-71.268490000">
<ele>0</ele>
<time>2026-09-04T06:27:42Z</time>
</trkpt>
<trkpt lat="45.510010000" lon="-71.268680000">
<ele>0</ele>
<time>2026-09-04T06:27:43Z</time>
</trkpt>
<trkpt lat="45.509610000" lon="-71.268820000">
<ele>0</ele>
<time>2026-09-04T06:27:44Z</time>
</trkpt>
<trkpt lat="45.509290000" lon="-71.268870000">
<ele>0</ele>
<time>2026-09-04T06:27:45Z</time>
</trkpt>
<trkpt lat="45.509100000" lon="-71.268870000">
<ele>0</ele>
<time>2026-09-04T06:27:46Z</time>
</trkpt>
<trkpt lat="45.508900000" lon="-71.268830000">
<ele>0</ele>
<time>2026-09-04T06:27:47Z</time>
</trkpt>
<trkpt lat="45.508460000" lon="-71.268690000">
<ele>0</ele>
<time>2026-09-04T06:27:48Z</time>
</trkpt>
<trkpt lat="45.507490000" lon="-71.268300000">
<ele>0</ele>
<time>2026-09-04T06:27:49Z</time>
</trkpt>
<trkpt lat="45.505930000" lon="-71.267630000">
<ele>0</ele>
<time>2026-09-04T06:27:50Z</time>
</trkpt>
<trkpt lat="45.504070000" lon="-71.266800000">
<ele>0</ele>
<time>2026-09-04T06:27:51Z</time>
</trkpt>
<trkpt lat="45.501550000" lon="-71.265720000">
<ele>0</ele>
<time>2026-09-04T06:27:52Z</time>
</trkpt>
<trkpt lat="45.498230000" lon="-71.264280000">
<ele>0</ele>
<time>2026-09-04T06:27:53Z</time>
</trkpt>
<trkpt lat="45.495960000" lon="-71.263270000">
<ele>0</ele>
<time>2026-09-04T06:27:54Z</time>
</trkpt>
<trkpt lat="45.494880000" lon="-71.262800000">
<ele>0</ele>
<time>2026-09-04T06:27:55Z</time>
</trkpt>
<trkpt lat="45.494620000" lon="-71.262720000">
<ele>0</ele>
<time>2026-09-04T06:27:56Z</time>
</trkpt>
<trkpt lat="45.493940000" lon="-71.262580000">
<ele>0</ele>
<time>2026-09-04T06:27:57Z</time>
</trkpt>
<trkpt lat="45.493400000" lon="-71.262530000">
<ele>0</ele>
<time>2026-09-04T06:27:58Z</time>
</trkpt>
<trkpt lat="45.492020000" lon="-71.262490000">
<ele>0</ele>
<time>2026-09-04T06:27:59Z</time>
</trkpt>
<trkpt lat="45.490890000" lon="-71.262370000">
<ele>0</ele>
<time>2026-09-04T06:28:00Z</time>
</trkpt>
<trkpt lat="45.490340000" lon="-71.262260000">
<ele>0</ele>
<time>2026-09-04T06:28:01Z</time>
</trkpt>
<trkpt lat="45.489920000" lon="-71.262130000">
<ele>0</ele>
<time>2026-09-04T06:28:02Z</time>
</trkpt>
<trkpt lat="45.489290000" lon="-71.261900000">
<ele>0</ele>
<time>2026-09-04T06:28:03Z</time>
</trkpt>
<trkpt lat="45.486280000" lon="-71.260700000">
<ele>0</ele>
<time>2026-09-04T06:28:04Z</time>
</trkpt>
<trkpt lat="45.483320000" lon="-71.259550000">
<ele>0</ele>
<time>2026-09-04T06:28:05Z</time>
</trkpt>
<trkpt lat="45.480850000" lon="-71.258630000">
<ele>0</ele>
<time>2026-09-04T06:28:06Z</time>
</trkpt>
<trkpt lat="45.480540000" lon="-71.258540000">
<ele>0</ele>
<time>2026-09-04T06:28:07Z</time>
</trkpt>
<trkpt lat="45.480180000" lon="-71.258460000">
<ele>0</ele>
<time>2026-09-04T06:28:08Z</time>
</trkpt>
<trkpt lat="45.479730000" lon="-71.258440000">
<ele>0</ele>
<time>2026-09-04T06:28:09Z</time>
</trkpt>
<trkpt lat="45.479110000" lon="-71.258490000">
<ele>0</ele>
<time>2026-09-04T06:28:10Z</time>
</trkpt>
<trkpt lat="45.478220000" lon="-71.258640000">
<ele>0</ele>
<time>2026-09-04T06:28:11Z</time>
</trkpt>
<trkpt lat="45.477200000" lon="-71.258760000">
<ele>0</ele>
<time>2026-09-04T06:28:12Z</time>
</trkpt>
<trkpt lat="45.476580000" lon="-71.258810000">
<ele>0</ele>
<time>2026-09-04T06:28:13Z</time>
</trkpt>
<trkpt lat="45.475950000" lon="-71.258820000">
<ele>0</ele>
<time>2026-09-04T06:28:14Z</time>
</trkpt>
<trkpt lat="45.475180000" lon="-71.258800000">
<ele>0</ele>
<time>2026-09-04T06:28:15Z</time>
</trkpt>
<trkpt lat="45.472680000" lon="-71.258760000">
<ele>0</ele>
<time>2026-09-04T06:28:16Z</time>
</trkpt>
<trkpt lat="45.468580000" lon="-71.258690000">
<ele>0</ele>
<time>2026-09-04T06:28:17Z</time>
</trkpt>
<trkpt lat="45.465700000" lon="-71.258700000">
<ele>0</ele>
<time>2026-09-04T06:28:18Z</time>
</trkpt>
<trkpt lat="45.452970000" lon="-71.258750000">
<ele>0</ele>
<time>2026-09-04T06:28:19Z</time>
</trkpt>
<trkpt lat="45.450210000" lon="-71.258820000">
<ele>0</ele>
<time>2026-09-04T06:28:20Z</time>
</trkpt>
<trkpt lat="45.444740000" lon="-71.258790000">
<ele>0</ele>
<time>2026-09-04T06:28:21Z</time>
</trkpt>
<trkpt lat="45.443290000" lon="-71.258810000">
<ele>0</ele>
<time>2026-09-04T06:28:22Z</time>
</trkpt>
<trkpt lat="45.441750000" lon="-71.258720000">
<ele>0</ele>
<time>2026-09-04T06:28:23Z</time>
</trkpt>
<trkpt lat="45.439180000" lon="-71.258640000">
<ele>0</ele>
<time>2026-09-04T06:28:24Z</time>
</trkpt>
<trkpt lat="45.436930000" lon="-71.258270000">
<ele>0</ele>
<time>2026-09-04T06:28:25Z</time>
</trkpt>
<trkpt lat="45.435960000" lon="-71.258090000">
<ele>0</ele>
<time>2026-09-04T06:28:26Z</time>
</trkpt>
<trkpt lat="45.435280000" lon="-71.257920000">
<ele>0</ele>
<time>2026-09-04T06:28:27Z</time>
</trkpt>
<trkpt lat="45.433850000" lon="-71.257710000">
<ele>0</ele>
<time>2026-09-04T06:28:28Z</time>
</trkpt>
<trkpt lat="45.433290000" lon="-71.257700000">
<ele>0</ele>
<time>2026-09-04T06:28:29Z</time>
</trkpt>
<trkpt lat="45.432830000" lon="-71.257810000">
<ele>0</ele>
<time>2026-09-04T06:28:30Z</time>
</trkpt>
<trkpt lat="45.432240000" lon="-71.257910000">
<ele>0</ele>
<time>2026-09-04T06:28:31Z</time>
</trkpt>
<trkpt lat="45.431720000" lon="-71.258050000">
<ele>0</ele>
<time>2026-09-04T06:28:32Z</time>
</trkpt>
<trkpt lat="45.431180000" lon="-71.258140000">
<ele>0</ele>
<time>2026-09-04T06:28:33Z</time>
</trkpt>
<trkpt lat="45.430470000" lon="-71.258160000">
<ele>0</ele>
<time>2026-09-04T06:28:34Z</time>
</trkpt>
<trkpt lat="45.429880000" lon="-71.258030000">
<ele>0</ele>
<time>2026-09-04T06:28:35Z</time>
</trkpt>
<trkpt lat="45.429360000" lon="-71.257870000">
<ele>0</ele>
<time>2026-09-04T06:28:36Z</time>
</trkpt>
<trkpt lat="45.427400000" lon="-71.256810000">
<ele>0</ele>
<time>2026-09-04T06:28:37Z</time>
</trkpt>
<trkpt lat="45.426540000" lon="-71.256470000">
<ele>0</ele>
<time>2026-09-04T06:28:38Z</time>
</trkpt>
<trkpt lat="45.426080000" lon="-71.256350000">
<ele>0</ele>
<time>2026-09-04T06:28:39Z</time>
</trkpt>
<trkpt lat="45.422080000" lon="-71.255570000">
<ele>0</ele>
<time>2026-09-04T06:28:40Z</time>
</trkpt>
<trkpt lat="45.418260000" lon="-71.254900000">
<ele>0</ele>
<time>2026-09-04T06:28:41Z</time>
</trkpt>
<trkpt lat="45.418140000" lon="-71.254880000">
<ele>0</ele>
<time>2026-09-04T06:28:42Z</time>
</trkpt>
<trkpt lat="45.410760000" lon="-71.253560000">
<ele>0</ele>
<time>2026-09-04T06:28:43Z</time>
</trkpt>
<trkpt lat="45.407350000" lon="-71.252980000">
<ele>0</ele>
<time>2026-09-04T06:28:44Z</time>
</trkpt>
<trkpt lat="45.406810000" lon="-71.252920000">
<ele>0</ele>
<time>2026-09-04T06:28:45Z</time>
</trkpt>
<trkpt lat="45.406670000" lon="-71.252890000">
<ele>0</ele>
<time>2026-09-04T06:28:46Z</time>
</trkpt>
<trkpt lat="45.406490000" lon="-71.252840000">
<ele>0</ele>
<time>2026-09-04T06:28:47Z</time>
</trkpt>
<trkpt lat="45.406120000" lon="-71.252690000">
<ele>0</ele>
<time>2026-09-04T06:28:48Z</time>
</trkpt>
<trkpt lat="45.405910000" lon="-71.252590000">
<ele>0</ele>
<time>2026-09-04T06:28:49Z</time>
</trkpt>
<trkpt lat="45.405250000" lon="-71.252080000">
<ele>0</ele>
<time>2026-09-04T06:28:50Z</time>
</trkpt>
<trkpt lat="45.403140000" lon="-71.250600000">
<ele>0</ele>
<time>2026-09-04T06:28:51Z</time>
</trkpt>
<trkpt lat="45.401850000" lon="-71.249620000">
<ele>0</ele>
<time>2026-09-04T06:28:52Z</time>
</trkpt>
<trkpt lat="45.401820000" lon="-71.244140000">
<ele>0</ele>
<time>2026-09-04T06:28:53Z</time>
</trkpt>
<trkpt lat="45.401860000" lon="-71.237950000">
<ele>0</ele>
<time>2026-09-04T06:28:54Z</time>
</trkpt>
<trkpt lat="45.401930000" lon="-71.233040000">
<ele>0</ele>
<time>2026-09-04T06:28:55Z</time>
</trkpt>
<trkpt lat="45.401910000" lon="-71.228090000">
<ele>0</ele>
<time>2026-09-04T06:28:56Z</time>
</trkpt>
<trkpt lat="45.401860000" lon="-71.226070000">
<ele>0</ele>
<time>2026-09-04T06:28:57Z</time>
</trkpt>
<trkpt lat="45.401820000" lon="-71.216560000">
<ele>0</ele>
<time>2026-09-04T06:28:58Z</time>
</trkpt>
<trkpt lat="45.401800000" lon="-71.205950000">
<ele>0</ele>
<time>2026-09-04T06:28:59Z</time>
</trkpt>
<trkpt lat="45.401820000" lon="-71.204280000">
<ele>0</ele>
<time>2026-09-04T06:29:00Z</time>
</trkpt>
<trkpt lat="45.401800000" lon="-71.202250000">
<ele>0</ele>
<time>2026-09-04T06:29:01Z</time>
</trkpt>
<trkpt lat="45.401800000" lon="-71.201430000">
<ele>0</ele>
<time>2026-09-04T06:29:02Z</time>
</trkpt>
<trkpt lat="45.401800000" lon="-71.201430000">
<ele>0</ele>
<time>2026-09-04T06:29:03Z</time>
</trkpt>
<trkpt lat="45.401800000" lon="-71.194290000">
<ele>0</ele>
<time>2026-09-04T06:29:04Z</time>
</trkpt>
<trkpt lat="45.401720000" lon="-71.180950000">
<ele>0</ele>
<time>2026-09-04T06:29:05Z</time>
</trkpt>
<trkpt lat="45.401680000" lon="-71.173930000">
<ele>0</ele>
<time>2026-09-04T06:29:06Z</time>
</trkpt>
<trkpt lat="45.401600000" lon="-71.173350000">
<ele>0</ele>
<time>2026-09-04T06:29:07Z</time>
</trkpt>
<trkpt lat="45.401520000" lon="-71.172950000">
<ele>0</ele>
<time>2026-09-04T06:29:08Z</time>
</trkpt>
<trkpt lat="45.401300000" lon="-71.172260000">
<ele>0</ele>
<time>2026-09-04T06:29:09Z</time>
</trkpt>
<trkpt lat="45.401040000" lon="-71.171760000">
<ele>0</ele>
<time>2026-09-04T06:29:10Z</time>
</trkpt>
<trkpt lat="45.399710000" lon="-71.169780000">
<ele>0</ele>
<time>2026-09-04T06:29:11Z</time>
</trkpt>
<trkpt lat="45.398090000" lon="-71.167540000">
<ele>0</ele>
<time>2026-09-04T06:29:12Z</time>
</trkpt>
<trkpt lat="45.395990000" lon="-71.164420000">
<ele>0</ele>
<time>2026-09-04T06:29:13Z</time>
</trkpt>
<trkpt lat="45.395070000" lon="-71.162920000">
<ele>0</ele>
<time>2026-09-04T06:29:14Z</time>
</trkpt>
<trkpt lat="45.394910000" lon="-71.162560000">
<ele>0</ele>
<time>2026-09-04T06:29:15Z</time>
</trkpt>
<trkpt lat="45.394650000" lon="-71.161870000">
<ele>0</ele>
<time>2026-09-04T06:29:16Z</time>
</trkpt>
<trkpt lat="45.394520000" lon="-71.161280000">
<ele>0</ele>
<time>2026-09-04T06:29:17Z</time>
</trkpt>
<trkpt lat="45.394390000" lon="-71.160590000">
<ele>0</ele>
<time>2026-09-04T06:29:18Z</time>
</trkpt>
<trkpt lat="45.394370000" lon="-71.159900000">
<ele>0</ele>
<time>2026-09-04T06:29:19Z</time>
</trkpt>
<trkpt lat="45.394400000" lon="-71.157480000">
<ele>0</ele>
<time>2026-09-04T06:29:20Z</time>
</trkpt>
<trkpt lat="45.394510000" lon="-71.145590000">
<ele>0</ele>
<time>2026-09-04T06:29:21Z</time>
</trkpt>
<trkpt lat="45.394590000" lon="-71.137400000">
<ele>0</ele>
<time>2026-09-04T06:29:22Z</time>
</trkpt>
<trkpt lat="45.394590000" lon="-71.134580000">
<ele>0</ele>
<time>2026-09-04T06:29:23Z</time>
</trkpt>
<trkpt lat="45.394590000" lon="-71.131970000">
<ele>0</ele>
<time>2026-09-04T06:29:24Z</time>
</trkpt>
<trkpt lat="45.394560000" lon="-71.131340000">
<ele>0</ele>
<time>2026-09-04T06:29:25Z</time>
</trkpt>
<trkpt lat="45.394570000" lon="-71.124820000">
<ele>0</ele>
<time>2026-09-04T06:29:26Z</time>
</trkpt>
<trkpt lat="45.394600000" lon="-71.107350000">
<ele>0</ele>
<time>2026-09-04T06:29:27Z</time>
</trkpt>
<trkpt lat="45.394610000" lon="-71.102650000">
<ele>0</ele>
<time>2026-09-04T06:29:28Z</time>
</trkpt>
<trkpt lat="45.394600000" lon="-71.095930000">
<ele>0</ele>
<time>2026-09-04T06:29:29Z</time>
</trkpt>
<trkpt lat="45.394620000" lon="-71.087450000">
<ele>0</ele>
<time>2026-09-04T06:29:30Z</time>
</trkpt>
<trkpt lat="45.394620000" lon="-71.087450000">
<ele>0</ele>
<time>2026-09-04T06:29:31Z</time>
</trkpt>
<trkpt lat="45.394620000" lon="-71.085250000">
<ele>0</ele>
<time>2026-09-04T06:29:32Z</time>
</trkpt>
<trkpt lat="45.394590000" lon="-71.083410000">
<ele>0</ele>
<time>2026-09-04T06:29:33Z</time>
</trkpt>
<trkpt lat="45.394570000" lon="-71.073030000">
<ele>0</ele>
<time>2026-09-04T06:29:34Z</time>
</trkpt>
<trkpt lat="45.396090000" lon="-71.072900000">
<ele>0</ele>
<time>2026-09-04T06:29:35Z</time>
</trkpt>
<trkpt lat="45.400510000" lon="-71.072690000">
<ele>0</ele>
<time>2026-09-04T06:29:36Z</time>
</trkpt>
<trkpt lat="45.401270000" lon="-71.072730000">
<ele>0</ele>
<time>2026-09-04T06:29:37Z</time>
</trkpt>
<trkpt lat="45.401790000" lon="-71.072790000">
<ele>0</ele>
<time>2026-09-04T06:29:38Z</time>
</trkpt>
<trkpt lat="45.402210000" lon="-71.072860000">
<ele>0</ele>
<time>2026-09-04T06:29:39Z</time>
</trkpt>
<trkpt lat="45.402710000" lon="-71.073000000">
<ele>0</ele>
<time>2026-09-04T06:29:40Z</time>
</trkpt>
<trkpt lat="45.403730000" lon="-71.073390000">
<ele>0</ele>
<time>2026-09-04T06:29:41Z</time>
</trkpt>
<trkpt lat="45.404150000" lon="-71.073530000">
<ele>0</ele>
<time>2026-09-04T06:29:42Z</time>
</trkpt>
<trkpt lat="45.404600000" lon="-71.073650000">
<ele>0</ele>
<time>2026-09-04T06:29:43Z</time>
</trkpt>
<trkpt lat="45.405390000" lon="-71.073790000">
<ele>0</ele>
<time>2026-09-04T06:29:44Z</time>
</trkpt>
<trkpt lat="45.406170000" lon="-71.073790000">
<ele>0</ele>
<time>2026-09-04T06:29:45Z</time>
</trkpt>
<trkpt lat="45.407320000" lon="-71.073640000">
<ele>0</ele>
<time>2026-09-04T06:29:46Z</time>
</trkpt>
<trkpt lat="45.409180000" lon="-71.073360000">
<ele>0</ele>
<time>2026-09-04T06:29:47Z</time>
</trkpt>
<trkpt lat="45.413040000" lon="-71.072780000">
<ele>0</ele>
<time>2026-09-04T06:29:48Z</time>
</trkpt>
<trkpt lat="45.413990000" lon="-71.072560000">
<ele>0</ele>
<time>2026-09-04T06:29:49Z</time>
</trkpt>
<trkpt lat="45.415700000" lon="-71.071990000">
<ele>0</ele>
<time>2026-09-04T06:29:50Z</time>
</trkpt>
<trkpt lat="45.416220000" lon="-71.071900000">
<ele>0</ele>
<time>2026-09-04T06:29:51Z</time>
</trkpt>
<trkpt lat="45.416550000" lon="-71.071880000">
<ele>0</ele>
<time>2026-09-04T06:29:52Z</time>
</trkpt>
<trkpt lat="45.416550000" lon="-71.071880000">
<ele>0</ele>
<time>2026-09-04T06:29:53Z</time>
</trkpt>
<trkpt lat="45.417050000" lon="-71.071870000">
<ele>0</ele>
<time>2026-09-04T06:29:54Z</time>
</trkpt>
<trkpt lat="45.421690000" lon="-71.072160000">
<ele>0</ele>
<time>2026-09-04T06:29:55Z</time>
</trkpt>
<trkpt lat="45.423820000" lon="-71.072340000">
<ele>0</ele>
<time>2026-09-04T06:29:56Z</time>
</trkpt>
<trkpt lat="45.423820000" lon="-71.072340000">
<ele>0</ele>
<time>2026-09-04T06:29:57Z</time>
</trkpt>
<trkpt lat="45.424590000" lon="-71.072370000">
<ele>0</ele>
<time>2026-09-04T06:29:58Z</time>
</trkpt>
<trkpt lat="45.426030000" lon="-71.072480000">
<ele>0</ele>
<time>2026-09-04T06:29:59Z</time>
</trkpt>
<trkpt lat="45.431790000" lon="-71.072530000">
<ele>0</ele>
<time>2026-09-04T06:30:00Z</time>
</trkpt>
<trkpt lat="45.434350000" lon="-71.072490000">
<ele>0</ele>
<time>2026-09-04T06:30:01Z</time>
</trkpt>
<trkpt lat="45.435960000" lon="-71.072410000">
<ele>0</ele>
<time>2026-09-04T06:30:02Z</time>
</trkpt>
<trkpt lat="45.438320000" lon="-71.072360000">
<ele>0</ele>
<time>2026-09-04T06:30:03Z</time>
</trkpt>
<trkpt lat="45.438350000" lon="-71.075150000">
<ele>0</ele>
<time>2026-09-04T06:30:04Z</time>
</trkpt>
<trkpt lat="45.438420000" lon="-71.075710000">
<ele>0</ele>
<time>2026-09-04T06:30:05Z</time>
</trkpt>
<trkpt lat="45.438760000" lon="-71.076040000">
<ele>0</ele>
<time>2026-09-04T06:30:06Z</time>
</trkpt>
<trkpt lat="45.441210000" lon="-71.078040000">
<ele>0</ele>
<time>2026-09-04T06:30:07Z</time>
</trkpt>
<trkpt lat="45.442640000" lon="-71.079130000">
<ele>0</ele>
<time>2026-09-04T06:30:08Z</time>
</trkpt>
<trkpt lat="45.442950000" lon="-71.079270000">
<ele>0</ele>
<time>2026-09-04T06:30:09Z</time>
</trkpt>
<trkpt lat="45.443720000" lon="-71.079310000">
<ele>0</ele>
<time>2026-09-04T06:30:10Z</time>
</trkpt>
<trkpt lat="45.444610000" lon="-71.079280000">
<ele>0</ele>
<time>2026-09-04T06:30:11Z</time>
</trkpt>
<trkpt lat="45.445190000" lon="-71.079220000">
<ele>0</ele>
<time>2026-09-04T06:30:12Z</time>
</trkpt>
<trkpt lat="45.445770000" lon="-71.079300000">
<ele>0</ele>
<time>2026-09-04T06:30:13Z</time>
</trkpt>
<trkpt lat="45.447420000" lon="-71.079390000">
<ele>0</ele>
<time>2026-09-04T06:30:14Z</time>
</trkpt>
<trkpt lat="45.448900000" lon="-71.079380000">
<ele>0</ele>
<time>2026-09-04T06:30:15Z</time>
</trkpt>
<trkpt lat="45.451120000" lon="-71.079430000">
<ele>0</ele>
<time>2026-09-04T06:30:16Z</time>
</trkpt>
<trkpt lat="45.454110000" lon="-71.079550000">
<ele>0</ele>
<time>2026-09-04T06:30:17Z</time>
</trkpt>
<trkpt lat="45.456040000" lon="-71.079590000">
<ele>0</ele>
<time>2026-09-04T06:30:18Z</time>
</trkpt>
<trkpt lat="45.456410000" lon="-71.079470000">
<ele>0</ele>
<time>2026-09-04T06:30:19Z</time>
</trkpt>
<trkpt lat="45.456870000" lon="-71.079280000">
<ele>0</ele>
<time>2026-09-04T06:30:20Z</time>
</trkpt>
<trkpt lat="45.457660000" lon="-71.078790000">
<ele>0</ele>
<time>2026-09-04T06:30:21Z</time>
</trkpt>
<trkpt lat="45.458190000" lon="-71.078340000">
<ele>0</ele>
<time>2026-09-04T06:30:22Z</time>
</trkpt>
<trkpt lat="45.458560000" lon="-71.077960000">
<ele>0</ele>
<time>2026-09-04T06:30:23Z</time>
</trkpt>
<trkpt lat="45.459570000" lon="-71.076820000">
<ele>0</ele>
<time>2026-09-04T06:30:24Z</time>
</trkpt>
<trkpt lat="45.460530000" lon="-71.075630000">
<ele>0</ele>
<time>2026-09-04T06:30:25Z</time>
</trkpt>
<trkpt lat="45.461550000" lon="-71.074760000">
<ele>0</ele>
<time>2026-09-04T06:30:26Z</time>
</trkpt>
<trkpt lat="45.461550000" lon="-71.074760000">
<ele>0</ele>
<time>2026-09-04T06:30:27Z</time>
</trkpt>
<trkpt lat="45.461900000" lon="-71.074470000">
<ele>0</ele>
<time>2026-09-04T06:30:28Z</time>
</trkpt>
<trkpt lat="45.462490000" lon="-71.074080000">
<ele>0</ele>
<time>2026-09-04T06:30:29Z</time>
</trkpt>
<trkpt lat="45.462950000" lon="-71.073840000">
<ele>0</ele>
<time>2026-09-04T06:30:30Z</time>
</trkpt>
<trkpt lat="45.462770000" lon="-71.072320000">
<ele>0</ele>
<time>2026-09-04T06:30:31Z</time>
</trkpt>
<trkpt lat="45.461940000" lon="-71.072290000">
<ele>0</ele>
<time>2026-09-04T06:30:32Z</time>
</trkpt>
<trkpt lat="45.461560000" lon="-71.072080000">
<ele>0</ele>
<time>2026-09-04T06:30:33Z</time>
</trkpt>
<trkpt lat="45.461400000" lon="-71.071940000">
<ele>0</ele>
<time>2026-09-04T06:30:34Z</time>
</trkpt>
</trkseg>
</trk>
</gpx>
